sensor_id;sensor_type;location;lat;lon;timestamp;P1;durP1;ratioP1;P2;durP2;ratioP2
34019;SDS011;20895;51.034;3.742;2022-10-16T00:01:19;2.78;;;1.20;;
34019;SDS011;20895;51.034;3.742;2022-10-16T00:03:45;2.03;;;1.00;;
34019;SDS011;20895;51.034;3.742;2022-10-16T00:06:11;2.47;;;1.20;;
34019;SDS011;20895;51.034;3.742;2022-10-16T00:08:37;2.63;;;1.45;;
34019;SDS011;20895;51.034;3.742;2022-10-16T00:11:03;3.33;;;1.42;;
34019;SDS011;20895;51.034;3.742;2022-10-16T00:13:29;3.40;;;1.08;;
34019;SDS011;20895;51.034;3.742;2022-10-16T00:15:55;1.45;;;1.20;;
34019;SDS011;20895;51.034;3.742;2022-10-16T00:18:21;2.40;;;1.30;;
34019;SDS011;20895;51.034;3.742;2022-10-16T00:20:46;2.58;;;1.65;;
34019;SDS011;20895;51.034;3.742;2022-10-16T00:23:11;1.98;;;1.40;;
34019;SDS011;20895;51.034;3.742;2022-10-16T00:25:37;3.03;;;1.50;;
34019;SDS011;20895;51.034;3.742;2022-10-16T00:28:02;3.25;;;1.45;;
34019;SDS011;20895;51.034;3.742;2022-10-16T00:30:27;2.28;;;1.42;;
34019;SDS011;20895;51.034;3.742;2022-10-16T00:32:53;1.35;;;1.25;;
34019;SDS011;20895;51.034;3.742;2022-10-16T00:35:19;1.67;;;1.20;;
34019;SDS011;20895;51.034;3.742;2022-10-16T00:37:44;1.45;;;1.20;;
34019;SDS011;20895;51.034;3.742;2022-10-16T00:40:09;3.03;;;1.13;;
34019;SDS011;20895;51.034;3.742;2022-10-16T00:42:35;1.90;;;1.20;;
34019;SDS011;20895;51.034;3.742;2022-10-16T00:45:00;3.20;;;1.30;;
34019;SDS011;20895;51.034;3.742;2022-10-16T00:47:37;1.83;;;1.20;;
34019;SDS011;20895;51.034;3.742;2022-10-16T00:50:08;1.63;;;1.13;;
34019;SDS011;20895;51.034;3.742;2022-10-16T00:52:34;2.13;;;1.10;;
34019;SDS011;20895;51.034;3.742;2022-10-16T00:54:59;3.35;;;1.17;;
34019;SDS011;20895;51.034;3.742;2022-10-16T00:57:25;2.65;;;1.10;;
34019;SDS011;20895;51.034;3.742;2022-10-16T00:59:51;3.08;;;1.33;;
34019;SDS011;20895;51.034;3.742;2022-10-16T01:02:16;1.85;;;1.25;;
34019;SDS011;20895;51.034;3.742;2022-10-16T01:04:46;5.97;;;1.30;;
34019;SDS011;20895;51.034;3.742;2022-10-16T01:07:21;3.17;;;1.10;;
34019;SDS011;20895;51.034;3.742;2022-10-16T01:09:57;1.13;;;1.02;;
34019;SDS011;20895;51.034;3.742;2022-10-16T01:17:38;1.20;;;0.95;;
34019;SDS011;20895;51.034;3.742;2022-10-16T01:20:10;2.10;;;1.20;;
34019;SDS011;20895;51.034;3.742;2022-10-16T01:22:55;1.95;;;1.10;;
34019;SDS011;20895;51.034;3.742;2022-10-16T01:28:10;3.30;;;1.55;;
34019;SDS011;20895;51.034;3.742;2022-10-16T01:30:37;3.88;;;1.17;;
34019;SDS011;20895;51.034;3.742;2022-10-16T01:33:04;3.22;;;1.08;;
34019;SDS011;20895;51.034;3.742;2022-10-16T01:35:37;3.28;;;0.85;;
34019;SDS011;20895;51.034;3.742;2022-10-16T01:38:05;1.52;;;1.10;;
34019;SDS011;20895;51.034;3.742;2022-10-16T01:40:32;2.35;;;1.08;;
34019;SDS011;20895;51.034;3.742;2022-10-16T01:43:00;3.28;;;1.15;;
34019;SDS011;20895;51.034;3.742;2022-10-16T01:45:25;1.65;;;1.05;;
34019;SDS011;20895;51.034;3.742;2022-10-16T01:47:52;2.50;;;1.17;;
34019;SDS011;20895;51.034;3.742;2022-10-16T01:50:18;1.58;;;1.08;;
34019;SDS011;20895;51.034;3.742;2022-10-16T01:52:45;1.33;;;1.02;;
34019;SDS011;20895;51.034;3.742;2022-10-16T01:55:12;5.45;;;1.15;;
34019;SDS011;20895;51.034;3.742;2022-10-16T01:57:39;1.23;;;0.80;;
34019;SDS011;20895;51.034;3.742;2022-10-16T02:00:07;1.02;;;0.88;;
34019;SDS011;20895;51.034;3.742;2022-10-16T02:02:33;2.05;;;1.30;;
34019;SDS011;20895;51.034;3.742;2022-10-16T02:05:08;2.97;;;1.23;;
34019;SDS011;20895;51.034;3.742;2022-10-16T02:07:35;2.50;;;1.23;;
34019;SDS011;20895;51.034;3.742;2022-10-16T02:10:01;2.47;;;1.05;;
34019;SDS011;20895;51.034;3.742;2022-10-16T02:12:27;3.78;;;1.27;;
34019;SDS011;20895;51.034;3.742;2022-10-16T02:14:53;4.07;;;1.30;;
34019;SDS011;20895;51.034;3.742;2022-10-16T02:17:19;3.35;;;1.33;;
34019;SDS011;20895;51.034;3.742;2022-10-16T02:19:44;2.60;;;1.50;;
34019;SDS011;20895;51.034;3.742;2022-10-16T02:22:15;5.70;;;1.08;;
34019;SDS011;20895;51.034;3.742;2022-10-16T02:30:05;1.90;;;1.10;;
34019;SDS011;20895;51.034;3.742;2022-10-16T02:32:33;3.25;;;1.17;;
34019;SDS011;20895;51.034;3.742;2022-10-16T02:34:59;3.83;;;1.23;;
34019;SDS011;20895;51.034;3.742;2022-10-16T02:37:25;2.58;;;1.35;;
34019;SDS011;20895;51.034;3.742;2022-10-16T02:39:51;2.97;;;1.20;;
34019;SDS011;20895;51.034;3.742;2022-10-16T02:42:17;6.10;;;1.60;;
34019;SDS011;20895;51.034;3.742;2022-10-16T02:44:42;3.17;;;1.10;;
34019;SDS011;20895;51.034;3.742;2022-10-16T02:47:08;3.63;;;1.40;;
34019;SDS011;20895;51.034;3.742;2022-10-16T02:49:33;2.47;;;1.20;;
34019;SDS011;20895;51.034;3.742;2022-10-16T02:51:58;4.88;;;1.17;;
34019;SDS011;20895;51.034;3.742;2022-10-16T02:54:23;3.25;;;1.27;;
34019;SDS011;20895;51.034;3.742;2022-10-16T02:56:49;4.07;;;1.35;;
34019;SDS011;20895;51.034;3.742;2022-10-16T02:59:14;2.70;;;1.38;;
34019;SDS011;20895;51.034;3.742;2022-10-16T03:01:39;5.32;;;1.42;;
34019;SDS011;20895;51.034;3.742;2022-10-16T03:04:04;4.20;;;1.70;;
34019;SDS011;20895;51.034;3.742;2022-10-16T03:06:30;3.47;;;1.75;;
34019;SDS011;20895;51.034;3.742;2022-10-16T03:08:55;4.10;;;1.67;;
34019;SDS011;20895;51.034;3.742;2022-10-16T03:11:20;3.88;;;1.20;;
34019;SDS011;20895;51.034;3.742;2022-10-16T03:13:45;4.15;;;1.48;;
34019;SDS011;20895;51.034;3.742;2022-10-16T03:16:10;4.55;;;1.38;;
34019;SDS011;20895;51.034;3.742;2022-10-16T03:18:36;3.97;;;1.20;;
34019;SDS011;20895;51.034;3.742;2022-10-16T03:21:01;2.63;;;1.40;;
34019;SDS011;20895;51.034;3.742;2022-10-16T03:23:26;3.53;;;1.23;;
34019;SDS011;20895;51.034;3.742;2022-10-16T03:25:52;4.25;;;1.50;;
34019;SDS011;20895;51.034;3.742;2022-10-16T03:28:17;2.05;;;1.13;;
34019;SDS011;20895;51.034;3.742;2022-10-16T03:30:43;3.08;;;1.38;;
34019;SDS011;20895;51.034;3.742;2022-10-16T03:33:08;2.80;;;1.23;;
34019;SDS011;20895;51.034;3.742;2022-10-16T03:35:33;4.57;;;1.63;;
34019;SDS011;20895;51.034;3.742;2022-10-16T03:37:59;3.88;;;1.50;;
34019;SDS011;20895;51.034;3.742;2022-10-16T03:40:24;2.35;;;1.58;;
34019;SDS011;20895;51.034;3.742;2022-10-16T03:42:49;3.55;;;2.13;;
34019;SDS011;20895;51.034;3.742;2022-10-16T03:45:15;2.45;;;1.52;;
34019;SDS011;20895;51.034;3.742;2022-10-16T03:47:40;3.67;;;1.50;;
34019;SDS011;20895;51.034;3.742;2022-10-16T03:50:06;4.93;;;2.45;;
34019;SDS011;20895;51.034;3.742;2022-10-16T03:52:31;2.58;;;1.10;;
34019;SDS011;20895;51.034;3.742;2022-10-16T03:54:57;4.15;;;1.70;;
34019;SDS011;20895;51.034;3.742;2022-10-16T03:57:23;2.97;;;1.50;;
34019;SDS011;20895;51.034;3.742;2022-10-16T03:59:48;2.55;;;1.15;;
34019;SDS011;20895;51.034;3.742;2022-10-16T04:02:13;2.42;;;1.67;;
34019;SDS011;20895;51.034;3.742;2022-10-16T04:04:38;6.25;;;2.40;;
34019;SDS011;20895;51.034;3.742;2022-10-16T04:07:04;6.78;;;1.60;;
34019;SDS011;20895;51.034;3.742;2022-10-16T04:09:29;5.35;;;1.90;;
34019;SDS011;20895;51.034;3.742;2022-10-16T04:11:54;3.75;;;1.92;;
34019;SDS011;20895;51.034;3.742;2022-10-16T04:14:19;4.70;;;1.77;;
34019;SDS011;20895;51.034;3.742;2022-10-16T04:16:45;4.57;;;1.90;;
34019;SDS011;20895;51.034;3.742;2022-10-16T04:19:10;7.80;;;1.90;;
34019;SDS011;20895;51.034;3.742;2022-10-16T04:21:35;4.03;;;1.73;;
34019;SDS011;20895;51.034;3.742;2022-10-16T04:24:01;8.15;;;1.92;;
34019;SDS011;20895;51.034;3.742;2022-10-16T04:26:26;5.97;;;1.70;;
34019;SDS011;20895;51.034;3.742;2022-10-16T04:28:51;2.83;;;1.83;;
34019;SDS011;20895;51.034;3.742;2022-10-16T04:31:16;3.45;;;1.70;;
34019;SDS011;20895;51.034;3.742;2022-10-16T04:33:42;3.63;;;1.95;;
34019;SDS011;20895;51.034;3.742;2022-10-16T04:36:08;3.97;;;1.67;;
34019;SDS011;20895;51.034;3.742;2022-10-16T04:38:33;6.32;;;1.83;;
34019;SDS011;20895;51.034;3.742;2022-10-16T04:40:58;6.25;;;1.80;;
34019;SDS011;20895;51.034;3.742;2022-10-16T04:43:24;5.82;;;3.03;;
34019;SDS011;20895;51.034;3.742;2022-10-16T04:45:50;8.20;;;3.22;;
34019;SDS011;20895;51.034;3.742;2022-10-16T04:48:19;4.60;;;1.60;;
34019;SDS011;20895;51.034;3.742;2022-10-16T04:50:44;6.60;;;1.80;;
34019;SDS011;20895;51.034;3.742;2022-10-16T04:53:10;3.63;;;1.48;;
34019;SDS011;20895;51.034;3.742;2022-10-16T04:55:35;7.78;;;2.45;;
34019;SDS011;20895;51.034;3.742;2022-10-16T04:58:01;4.18;;;1.83;;
34019;SDS011;20895;51.034;3.742;2022-10-16T05:00:26;4.18;;;1.70;;
34019;SDS011;20895;51.034;3.742;2022-10-16T05:02:51;4.55;;;1.63;;
34019;SDS011;20895;51.034;3.742;2022-10-16T05:05:17;4.95;;;1.67;;
34019;SDS011;20895;51.034;3.742;2022-10-16T05:07:44;3.58;;;1.80;;
34019;SDS011;20895;51.034;3.742;2022-10-16T05:10:09;4.63;;;2.00;;
34019;SDS011;20895;51.034;3.742;2022-10-16T05:12:34;3.92;;;1.92;;
34019;SDS011;20895;51.034;3.742;2022-10-16T05:15:00;4.78;;;2.47;;
34019;SDS011;20895;51.034;3.742;2022-10-16T05:17:25;6.70;;;2.22;;
34019;SDS011;20895;51.034;3.742;2022-10-16T05:19:51;4.35;;;1.83;;
34019;SDS011;20895;51.034;3.742;2022-10-16T05:22:16;5.00;;;1.80;;
34019;SDS011;20895;51.034;3.742;2022-10-16T05:24:41;4.40;;;2.00;;
34019;SDS011;20895;51.034;3.742;2022-10-16T05:27:06;7.25;;;3.03;;
34019;SDS011;20895;51.034;3.742;2022-10-16T05:29:31;6.25;;;1.90;;
34019;SDS011;20895;51.034;3.742;2022-10-16T05:31:57;5.75;;;1.67;;
34019;SDS011;20895;51.034;3.742;2022-10-16T05:34:22;16.42;;;2.97;;
34019;SDS011;20895;51.034;3.742;2022-10-16T05:36:47;4.03;;;1.88;;
34019;SDS011;20895;51.034;3.742;2022-10-16T05:39:13;3.00;;;1.45;;
34019;SDS011;20895;51.034;3.742;2022-10-16T05:41:39;6.72;;;2.30;;
34019;SDS011;20895;51.034;3.742;2022-10-16T05:44:04;5.07;;;2.03;;
34019;SDS011;20895;51.034;3.742;2022-10-16T05:46:30;4.80;;;1.55;;
34019;SDS011;20895;51.034;3.742;2022-10-16T05:48:55;5.55;;;2.42;;
34019;SDS011;20895;51.034;3.742;2022-10-16T05:51:21;4.10;;;1.48;;
34019;SDS011;20895;51.034;3.742;2022-10-16T05:53:46;6.00;;;2.08;;
34019;SDS011;20895;51.034;3.742;2022-10-16T05:56:11;3.58;;;1.58;;
34019;SDS011;20895;51.034;3.742;2022-10-16T05:58:37;3.03;;;1.65;;
34019;SDS011;20895;51.034;3.742;2022-10-16T06:01:26;4.25;;;1.80;;
34019;SDS011;20895;51.034;3.742;2022-10-16T06:03:51;2.85;;;1.90;;
34019;SDS011;20895;51.034;3.742;2022-10-16T06:06:17;4.35;;;1.95;;
34019;SDS011;20895;51.034;3.742;2022-10-16T06:08:43;4.15;;;1.50;;
34019;SDS011;20895;51.034;3.742;2022-10-16T06:11:09;4.20;;;1.67;;
34019;SDS011;20895;51.034;3.742;2022-10-16T06:13:35;6.97;;;2.55;;
34019;SDS011;20895;51.034;3.742;2022-10-16T06:16:00;7.18;;;2.20;;
34019;SDS011;20895;51.034;3.742;2022-10-16T06:18:26;5.78;;;1.92;;
34019;SDS011;20895;51.034;3.742;2022-10-16T06:20:52;6.70;;;2.00;;
34019;SDS011;20895;51.034;3.742;2022-10-16T06:23:18;6.78;;;2.17;;
34019;SDS011;20895;51.034;3.742;2022-10-16T06:25:43;3.65;;;1.90;;
34019;SDS011;20895;51.034;3.742;2022-10-16T06:28:08;6.03;;;2.22;;
34019;SDS011;20895;51.034;3.742;2022-10-16T06:30:33;3.47;;;1.70;;
34019;SDS011;20895;51.034;3.742;2022-10-16T06:32:58;5.35;;;1.90;;
34019;SDS011;20895;51.034;3.742;2022-10-16T06:35:24;7.43;;;2.05;;
34019;SDS011;20895;51.034;3.742;2022-10-16T06:37:49;3.40;;;2.33;;
34019;SDS011;20895;51.034;3.742;2022-10-16T06:40:14;5.35;;;1.65;;
34019;SDS011;20895;51.034;3.742;2022-10-16T06:42:40;3.65;;;1.70;;
34019;SDS011;20895;51.034;3.742;2022-10-16T06:45:05;4.85;;;2.65;;
34019;SDS011;20895;51.034;3.742;2022-10-16T06:47:31;6.85;;;2.20;;
34019;SDS011;20895;51.034;3.742;2022-10-16T06:49:56;5.68;;;1.98;;
34019;SDS011;20895;51.034;3.742;2022-10-16T06:52:21;6.32;;;1.77;;
34019;SDS011;20895;51.034;3.742;2022-10-16T06:54:46;6.60;;;2.53;;
34019;SDS011;20895;51.034;3.742;2022-10-16T06:57:12;2.75;;;1.90;;
34019;SDS011;20895;51.034;3.742;2022-10-16T06:59:37;4.22;;;1.92;;
34019;SDS011;20895;51.034;3.742;2022-10-16T07:02:02;4.10;;;1.90;;
34019;SDS011;20895;51.034;3.742;2022-10-16T07:04:28;4.53;;;1.70;;
34019;SDS011;20895;51.034;3.742;2022-10-16T07:06:53;4.15;;;2.00;;
34019;SDS011;20895;51.034;3.742;2022-10-16T07:09:18;4.57;;;1.88;;
34019;SDS011;20895;51.034;3.742;2022-10-16T07:11:43;3.95;;;2.17;;
34019;SDS011;20895;51.034;3.742;2022-10-16T07:14:16;10.25;;;5.65;;
34019;SDS011;20895;51.034;3.742;2022-10-16T07:16:42;17.88;;;12.20;;
34019;SDS011;20895;51.034;3.742;2022-10-16T07:19:07;20.17;;;12.45;;
34019;SDS011;20895;51.034;3.742;2022-10-16T07:21:33;12.80;;;7.00;;
34019;SDS011;20895;51.034;3.742;2022-10-16T07:24:02;20.58;;;14.18;;
34019;SDS011;20895;51.034;3.742;2022-10-16T07:26:29;15.50;;;10.45;;
34019;SDS011;20895;51.034;3.742;2022-10-16T07:28:55;8.10;;;5.32;;
34019;SDS011;20895;51.034;3.742;2022-10-16T07:31:20;12.55;;;7.78;;
34019;SDS011;20895;51.034;3.742;2022-10-16T07:33:46;7.15;;;3.88;;
34019;SDS011;20895;51.034;3.742;2022-10-16T07:36:12;7.63;;;5.18;;
34019;SDS011;20895;51.034;3.742;2022-10-16T07:38:38;5.90;;;3.30;;
34019;SDS011;20895;51.034;3.742;2022-10-16T07:41:04;5.88;;;3.20;;
34019;SDS011;20895;51.034;3.742;2022-10-16T07:43:29;2.75;;;2.05;;
34019;SDS011;20895;51.034;3.742;2022-10-16T07:45:55;7.35;;;5.70;;
34019;SDS011;20895;51.034;3.742;2022-10-16T07:48:20;11.75;;;6.57;;
34019;SDS011;20895;51.034;3.742;2022-10-16T07:50:46;8.93;;;5.45;;
34019;SDS011;20895;51.034;3.742;2022-10-16T07:53:11;6.07;;;3.58;;
34019;SDS011;20895;51.034;3.742;2022-10-16T07:55:37;5.05;;;2.63;;
34019;SDS011;20895;51.034;3.742;2022-10-16T07:58:02;7.88;;;5.95;;
34019;SDS011;20895;51.034;3.742;2022-10-16T08:00:28;6.22;;;3.63;;
34019;SDS011;20895;51.034;3.742;2022-10-16T08:02:53;6.60;;;4.13;;
34019;SDS011;20895;51.034;3.742;2022-10-16T08:05:18;6.10;;;3.53;;
34019;SDS011;20895;51.034;3.742;2022-10-16T08:07:48;6.65;;;5.13;;
34019;SDS011;20895;51.034;3.742;2022-10-16T08:10:16;6.88;;;3.30;;
34019;SDS011;20895;51.034;3.742;2022-10-16T08:12:41;8.63;;;4.45;;
34019;SDS011;20895;51.034;3.742;2022-10-16T08:15:07;6.70;;;2.35;;
34019;SDS011;20895;51.034;3.742;2022-10-16T08:17:32;7.35;;;2.40;;
34019;SDS011;20895;51.034;3.742;2022-10-16T08:19:57;7.63;;;2.28;;
34019;SDS011;20895;51.034;3.742;2022-10-16T08:22:23;7.03;;;2.05;;
34019;SDS011;20895;51.034;3.742;2022-10-16T08:24:48;4.45;;;1.55;;
34019;SDS011;20895;51.034;3.742;2022-10-16T08:27:13;4.25;;;1.58;;
34019;SDS011;20895;51.034;3.742;2022-10-16T08:29:38;3.03;;;1.92;;
34019;SDS011;20895;51.034;3.742;2022-10-16T08:32:04;6.43;;;2.10;;
34019;SDS011;20895;51.034;3.742;2022-10-16T08:34:29;6.00;;;1.70;;
34019;SDS011;20895;51.034;3.742;2022-10-16T08:37:00;6.43;;;1.67;;
34019;SDS011;20895;51.034;3.742;2022-10-16T08:39:25;6.38;;;1.58;;
34019;SDS011;20895;51.034;3.742;2022-10-16T08:52:17;6.78;;;1.77;;
34019;SDS011;20895;51.034;3.742;2022-10-16T08:54:44;4.38;;;1.40;;
34019;SDS011;20895;51.034;3.742;2022-10-16T08:57:15;7.38;;;2.20;;
34019;SDS011;20895;51.034;3.742;2022-10-16T08:59:42;7.90;;;2.08;;
34019;SDS011;20895;51.034;3.742;2022-10-16T09:02:23;7.07;;;1.50;;
34019;SDS011;20895;51.034;3.742;2022-10-16T09:05:00;7.18;;;2.22;;
34019;SDS011;20895;51.034;3.742;2022-10-16T09:12:43;8.50;;;2.97;;
34019;SDS011;20895;51.034;3.742;2022-10-16T09:17:59;7.40;;;1.70;;
34019;SDS011;20895;51.034;3.742;2022-10-16T09:23:30;5.10;;;1.30;;
34019;SDS011;20895;51.034;3.742;2022-10-16T09:25:56;7.15;;;2.67;;
34019;SDS011;20895;51.034;3.742;2022-10-16T09:28:22;6.53;;;1.83;;
34019;SDS011;20895;51.034;3.742;2022-10-16T09:30:47;7.47;;;2.15;;
34019;SDS011;20895;51.034;3.742;2022-10-16T09:33:15;5.10;;;1.40;;
34019;SDS011;20895;51.034;3.742;2022-10-16T09:35:43;7.10;;;1.50;;
34019;SDS011;20895;51.034;3.742;2022-10-16T09:38:08;4.07;;;1.63;;
34019;SDS011;20895;51.034;3.742;2022-10-16T09:43:07;6.03;;;1.70;;
34019;SDS011;20895;51.034;3.742;2022-10-16T09:45:37;6.38;;;1.65;;
34019;SDS011;20895;51.034;3.742;2022-10-16T09:48:10;9.13;;;1.73;;
34019;SDS011;20895;51.034;3.742;2022-10-16T09:50:36;6.90;;;1.77;;
34019;SDS011;20895;51.034;3.742;2022-10-16T09:53:14;10.02;;;2.03;;
34019;SDS011;20895;51.034;3.742;2022-10-16T09:55:49;6.18;;;1.75;;
34019;SDS011;20895;51.034;3.742;2022-10-16T09:58:15;4.18;;;1.92;;
34019;SDS011;20895;51.034;3.742;2022-10-16T10:00:41;9.05;;;1.73;;
34019;SDS011;20895;51.034;3.742;2022-10-16T10:03:10;5.60;;;1.70;;
34019;SDS011;20895;51.034;3.742;2022-10-16T10:05:35;5.60;;;1.75;;
34019;SDS011;20895;51.034;3.742;2022-10-16T10:08:01;6.03;;;2.15;;
34019;SDS011;20895;51.034;3.742;2022-10-16T10:10:31;10.20;;;2.17;;
34019;SDS011;20895;51.034;3.742;2022-10-16T10:12:57;8.23;;;2.10;;
34019;SDS011;20895;51.034;3.742;2022-10-16T10:15:22;5.03;;;1.55;;
34019;SDS011;20895;51.034;3.742;2022-10-16T10:20:35;8.50;;;2.30;;
34019;SDS011;20895;51.034;3.742;2022-10-16T10:23:24;5.75;;;1.63;;
34019;SDS011;20895;51.034;3.742;2022-10-16T10:33:43;10.05;;;2.50;;
34019;SDS011;20895;51.034;3.742;2022-10-16T10:49:17;6.28;;;1.83;;
34019;SDS011;20895;51.034;3.742;2022-10-16T10:56:43;12.70;;;2.15;;
34019;SDS011;20895;51.034;3.742;2022-10-16T11:01:53;6.00;;;2.05;;
34019;SDS011;20895;51.034;3.742;2022-10-16T11:06:59;8.75;;;2.08;;
34019;SDS011;20895;51.034;3.742;2022-10-16T11:09:25;13.77;;;3.25;;
34019;SDS011;20895;51.034;3.742;2022-10-16T11:11:53;6.05;;;1.38;;
34019;SDS011;20895;51.034;3.742;2022-10-16T11:14:20;6.65;;;1.88;;
34019;SDS011;20895;51.034;3.742;2022-10-16T11:16:54;6.63;;;1.70;;
34019;SDS011;20895;51.034;3.742;2022-10-16T11:19:28;6.35;;;1.95;;
34019;SDS011;20895;51.034;3.742;2022-10-16T11:22:00;4.65;;;1.25;;
34019;SDS011;20895;51.034;3.742;2022-10-16T11:25:13;11.70;;;2.30;;
34019;SDS011;20895;51.034;3.742;2022-10-16T11:27:14;14.93;;;3.58;;
34019;SDS011;20895;51.034;3.742;2022-10-16T11:29:43;6.75;;;1.42;;
34019;SDS011;20895;51.034;3.742;2022-10-16T11:32:15;7.40;;;1.75;;
34019;SDS011;20895;51.034;3.742;2022-10-16T11:34:44;6.35;;;1.98;;
34019;SDS011;20895;51.034;3.742;2022-10-16T11:37:19;8.43;;;3.50;;
34019;SDS011;20895;51.034;3.742;2022-10-16T11:39:45;6.93;;;1.70;;
34019;SDS011;20895;51.034;3.742;2022-10-16T11:42:19;5.97;;;1.88;;
34019;SDS011;20895;51.034;3.742;2022-10-16T11:49:58;7.05;;;2.40;;
34019;SDS011;20895;51.034;3.742;2022-10-16T11:57:26;6.38;;;1.60;;
34019;SDS011;20895;51.034;3.742;2022-10-16T11:59:54;6.32;;;1.67;;
34019;SDS011;20895;51.034;3.742;2022-10-16T12:05:01;8.25;;;2.75;;
34019;SDS011;20895;51.034;3.742;2022-10-16T12:07:32;9.25;;;1.85;;
34019;SDS011;20895;51.034;3.742;2022-10-16T12:10:09;4.40;;;1.20;;
34019;SDS011;20895;51.034;3.742;2022-10-16T12:15:00;5.43;;;1.10;;
34019;SDS011;20895;51.034;3.742;2022-10-16T12:17:27;7.70;;;1.65;;
34019;SDS011;20895;51.034;3.742;2022-10-16T12:20:00;6.13;;;2.10;;
34019;SDS011;20895;51.034;3.742;2022-10-16T12:22:27;4.85;;;1.20;;
34019;SDS011;20895;51.034;3.742;2022-10-16T12:24:53;5.10;;;1.08;;
34019;SDS011;20895;51.034;3.742;2022-10-16T12:27:27;8.20;;;2.17;;
34019;SDS011;20895;51.034;3.742;2022-10-16T12:29:54;3.38;;;1.25;;
34019;SDS011;20895;51.034;3.742;2022-10-16T12:32:36;5.50;;;1.73;;
34019;SDS011;20895;51.034;3.742;2022-10-16T12:35:03;5.35;;;1.20;;
34019;SDS011;20895;51.034;3.742;2022-10-16T12:37:31;4.07;;;1.65;;
34019;SDS011;20895;51.034;3.742;2022-10-16T12:39:58;5.03;;;1.38;;
34019;SDS011;20895;51.034;3.742;2022-10-16T12:44:52;3.28;;;1.13;;
34019;SDS011;20895;51.034;3.742;2022-10-16T12:49:51;6.10;;;1.58;;
34019;SDS011;20895;51.034;3.742;2022-10-16T12:52:51;3.08;;;1.10;;
34019;SDS011;20895;51.034;3.742;2022-10-16T12:55:15;3.28;;;1.10;;
34019;SDS011;20895;51.034;3.742;2022-10-16T12:58:00;6.30;;;1.20;;
34019;SDS011;20895;51.034;3.742;2022-10-16T13:13:46;8.93;;;1.85;;
34019;SDS011;20895;51.034;3.742;2022-10-16T13:16:37;7.75;;;1.50;;
34019;SDS011;20895;51.034;3.742;2022-10-16T13:19:20;4.13;;;1.33;;
34019;SDS011;20895;51.034;3.742;2022-10-16T13:26:57;5.22;;;1.10;;
34019;SDS011;20895;51.034;3.742;2022-10-16T13:29:29;4.30;;;1.17;;
34019;SDS011;20895;51.034;3.742;2022-10-16T13:31:55;5.47;;;0.98;;
34019;SDS011;20895;51.034;3.742;2022-10-16T13:34:21;3.42;;;1.00;;
34019;SDS011;20895;51.034;3.742;2022-10-16T13:36:48;6.05;;;1.15;;
34019;SDS011;20895;51.034;3.742;2022-10-16T13:44:27;3.28;;;1.23;;
34019;SDS011;20895;51.034;3.742;2022-10-16T13:46:59;1.50;;;0.60;;
34019;SDS011;20895;51.034;3.742;2022-10-16T13:49:24;5.10;;;1.63;;
34019;SDS011;20895;51.034;3.742;2022-10-16T13:51:56;5.18;;;1.50;;
34019;SDS011;20895;51.034;3.742;2022-10-16T13:54:22;2.95;;;0.77;;
34019;SDS011;20895;51.034;3.742;2022-10-16T13:56:47;2.63;;;1.10;;
34019;SDS011;20895;51.034;3.742;2022-10-16T13:59:34;3.05;;;1.20;;
34019;SDS011;20895;51.034;3.742;2022-10-16T14:01:58;3.33;;;1.25;;
34019;SDS011;20895;51.034;3.742;2022-10-16T14:04:31;3.33;;;1.00;;
34019;SDS011;20895;51.034;3.742;2022-10-16T14:06:57;7.63;;;1.60;;
34019;SDS011;20895;51.034;3.742;2022-10-16T14:11:51;3.88;;;1.80;;
34019;SDS011;20895;51.034;3.742;2022-10-16T14:14:18;3.47;;;1.10;;
34019;SDS011;20895;51.034;3.742;2022-10-16T14:16:44;3.33;;;1.55;;
34019;SDS011;20895;51.034;3.742;2022-10-16T14:19:18;5.00;;;1.40;;
34019;SDS011;20895;51.034;3.742;2022-10-16T14:21:45;4.93;;;1.10;;
34019;SDS011;20895;51.034;3.742;2022-10-16T14:24:14;3.53;;;1.88;;
34019;SDS011;20895;51.034;3.742;2022-10-16T14:26:47;2.35;;;1.00;;
34019;SDS011;20895;51.034;3.742;2022-10-16T14:29:15;4.68;;;0.95;;
34019;SDS011;20895;51.034;3.742;2022-10-16T14:31:41;2.88;;;0.70;;
34019;SDS011;20895;51.034;3.742;2022-10-16T14:34:22;2.30;;;0.95;;
34019;SDS011;20895;51.034;3.742;2022-10-16T14:36:49;3.47;;;1.88;;
34019;SDS011;20895;51.034;3.742;2022-10-16T14:39:17;3.13;;;1.00;;
34019;SDS011;20895;51.034;3.742;2022-10-16T14:41:46;2.00;;;0.70;;
34019;SDS011;20895;51.034;3.742;2022-10-16T14:44:11;1.20;;;0.80;;
34019;SDS011;20895;51.034;3.742;2022-10-16T14:46:38;3.25;;;1.33;;
34019;SDS011;20895;51.034;3.742;2022-10-16T14:49:05;3.65;;;1.02;;
34019;SDS011;20895;51.034;3.742;2022-10-16T14:51:38;7.25;;;0.80;;
34019;SDS011;20895;51.034;3.742;2022-10-16T14:54:07;10.43;;;1.92;;
34019;SDS011;20895;51.034;3.742;2022-10-16T14:59:12;2.55;;;1.45;;
34019;SDS011;20895;51.034;3.742;2022-10-16T15:01:39;3.38;;;0.70;;
34019;SDS011;20895;51.034;3.742;2022-10-16T15:04:04;4.63;;;1.25;;
34019;SDS011;20895;51.034;3.742;2022-10-16T15:06:30;1.27;;;0.80;;
34019;SDS011;20895;51.034;3.742;2022-10-16T15:08:55;2.47;;;0.85;;
34019;SDS011;20895;51.034;3.742;2022-10-16T15:11:20;2.70;;;1.30;;
34019;SDS011;20895;51.034;3.742;2022-10-16T15:13:45;3.53;;;1.20;;
34019;SDS011;20895;51.034;3.742;2022-10-16T15:16:12;2.38;;;0.90;;
34019;SDS011;20895;51.034;3.742;2022-10-16T15:18:37;3.38;;;1.50;;
34019;SDS011;20895;51.034;3.742;2022-10-16T15:21:02;2.72;;;1.92;;
34019;SDS011;20895;51.034;3.742;2022-10-16T15:23:28;2.95;;;1.35;;
34019;SDS011;20895;51.034;3.742;2022-10-16T15:25:54;3.00;;;0.98;;
34019;SDS011;20895;51.034;3.742;2022-10-16T15:28:19;2.33;;;1.35;;
34019;SDS011;20895;51.034;3.742;2022-10-16T15:30:45;2.83;;;1.20;;
34019;SDS011;20895;51.034;3.742;2022-10-16T15:33:12;3.00;;;1.20;;
34019;SDS011;20895;51.034;3.742;2022-10-16T15:35:38;4.45;;;1.15;;
34019;SDS011;20895;51.034;3.742;2022-10-16T15:38:03;3.97;;;1.58;;
34019;SDS011;20895;51.034;3.742;2022-10-16T15:40:29;34.78;;;6.97;;
34019;SDS011;20895;51.034;3.742;2022-10-16T15:42:54;8.35;;;1.67;;
34019;SDS011;20895;51.034;3.742;2022-10-16T15:45:19;3.25;;;1.02;;
34019;SDS011;20895;51.034;3.742;2022-10-16T15:47:45;5.30;;;1.45;;
34019;SDS011;20895;51.034;3.742;2022-10-16T15:50:12;9.15;;;1.20;;
34019;SDS011;20895;51.034;3.742;2022-10-16T15:52:37;6.65;;;1.80;;
34019;SDS011;20895;51.034;3.742;2022-10-16T15:55:04;3.40;;;1.17;;
34019;SDS011;20895;51.034;3.742;2022-10-16T15:57:30;3.22;;;1.60;;
34019;SDS011;20895;51.034;3.742;2022-10-16T15:59:55;4.15;;;1.60;;
34019;SDS011;20895;51.034;3.742;2022-10-16T16:02:20;4.90;;;1.40;;
34019;SDS011;20895;51.034;3.742;2022-10-16T16:04:45;3.72;;;1.80;;
34019;SDS011;20895;51.034;3.742;2022-10-16T16:07:14;3.75;;;1.60;;
34019;SDS011;20895;51.034;3.742;2022-10-16T16:09:39;3.97;;;1.85;;
34019;SDS011;20895;51.034;3.742;2022-10-16T16:12:05;3.10;;;1.75;;
34019;SDS011;20895;51.034;3.742;2022-10-16T16:14:30;6.10;;;2.00;;
34019;SDS011;20895;51.034;3.742;2022-10-16T16:16:55;13.57;;;2.30;;
34019;SDS011;20895;51.034;3.742;2022-10-16T16:19:21;7.00;;;2.30;;
34019;SDS011;20895;51.034;3.742;2022-10-16T16:21:49;15.10;;;5.20;;
34019;SDS011;20895;51.034;3.742;2022-10-16T16:24:15;9.18;;;2.47;;
34019;SDS011;20895;51.034;3.742;2022-10-16T16:26:40;6.38;;;2.40;;
34019;SDS011;20895;51.034;3.742;2022-10-16T16:29:08;3.10;;;1.42;;
34019;SDS011;20895;51.034;3.742;2022-10-16T16:31:36;4.25;;;2.45;;
34019;SDS011;20895;51.034;3.742;2022-10-16T16:34:01;9.50;;;4.20;;
34019;SDS011;20895;51.034;3.742;2022-10-16T16:36:26;11.52;;;4.90;;
34019;SDS011;20895;51.034;3.742;2022-10-16T16:38:52;12.10;;;5.40;;
34019;SDS011;20895;51.034;3.742;2022-10-16T16:41:18;5.70;;;2.33;;
34019;SDS011;20895;51.034;3.742;2022-10-16T16:43:44;5.00;;;1.80;;
34019;SDS011;20895;51.034;3.742;2022-10-16T16:46:09;5.22;;;2.10;;